Nearby METAR Reports

 

KAPA - Denver/Arapahoe, Colorado, USA
Distance from station: ENE 3mi, 4km
Updated: Sun, 02/18/2018 10:53am MST
Partly cloudy
Partly cloudy
 Wind from W
Wind: W 25 mph , 41 km/h, Gust: 32 mph , 52 km/h
Temperature: 61°F , 16°C
Dew Point: 3°F , -16°C
Humidity: 10%
Barometer: 29.50 inHg , 999 hPa
Clouds: Partly cloudy
Visibility: 10 miles , 16 km
Cloud details: Few Clouds 8000 ft
Partly cloudy 14000 ft
Partly cloudy 18000 ft
2018/02/18 17:53 KAPA 181753Z 26022G28KT 10SM FEW080 SCT140 SCT180 16/M16 A2950 RMK AO2 PK WND 27028/1750 SLP958 ACSL DSNT ALQDS T01561156 10156 20061 58020 $
KBKF - Buckley Angb/Den, Colorado, USA
Distance from station: NE 14mi, 22km
Updated: Sun, 02/18/2018 10:58am MST
Mostly cloudy
Mostly cloudy
 Wind from S
Wind: S 10 mph , 17 km/h
Temperature: 59°F , 15°C
Dew Point: 7°F , -14°C
Humidity: 12%
Barometer: 29.51 inHg , 999.3 hPa
Clouds: Mostly cloudy
Visibility: 10 miles , 16 km
Cloud details: Few Clouds 8000 ft
Few Clouds 13000 ft
Mostly cloudy 20000 ft
2018/02/18 17:58 KBKF 181758Z 17009KT 10SM FEW080 FEW130 BKN200 15/M14 A2951 RMK AO2A SLP947 T01501142 10150 20058 57016
 
KDEN - Denver (dia), Colorado, USA
Distance from station: NNE 24mi, 39km
Updated: Sun, 02/18/2018 10:53am MST
Mostly cloudy
Mostly cloudy
 Wind from S
Wind: S 9 mph , 15 km/h
Temperature: 63°F , 17°C
Dew Point: 9°F , -13°C
Humidity: 12%
Barometer: 29.49 inHg , 998.6 hPa
Clouds: Mostly cloudy
Visibility: 10 miles , 16 km
Cloud details: Few Clouds 10000 ft
Few Clouds 15000 ft
Mostly cloudy 22000 ft
2018/02/18 17:53 KDEN 181753Z 17008KT 10SM FEW100 FEW150 BKN220 17/M13 A2949 RMK AO2 SLP949 ACSL ALQDS T01671128 10167 20039 58013 $
KFTG - Denver F. Range, Colorado, USA
Distance from station: NE 24mi, 39km
Updated: Sun, 02/18/2018 10:50am MST
Mostly cloudy
Mostly cloudy
 Wind from S
Wind: S 15 mph , 24 km/h
Temperature: 61°F , 16°C
Dew Point: 9°F , -13°C
Humidity: 12%
Barometer: 29.52 inHg , 999.7 hPa
Clouds: Mostly cloudy
Visibility: 10 miles , 16 km
Cloud details: Few Clouds 12000 ft
Mostly cloudy 22000 ft
2018/02/18 17:50 KFTG 181750Z 17013KT 10SM FEW120 BKN220 16/M13 A2952
 
KBJC - Broomfield/Jeffc, Colorado, USA
Distance from station: NNW 26mi, 42km
Updated: Sun, 02/18/2018 10:47am MST
Mostly cloudy
Mostly cloudy
 Wind from NNE
Wind: NNE 7 mph , 11 km/h
Temperature: 63°F , 17°C
Dew Point: 7°F , -14°C
Humidity: 11%
Barometer: 29.50 inHg , 999 hPa
Clouds: Mostly cloudy
Visibility: 40 miles , 64 km
Cloud details: Few Clouds 8000 ft
Few Clouds 15000 ft
Mostly cloudy 22000 ft
2018/02/18 17:47 KBJC 181747Z 03006KT 40SM FEW080 FEW150 BKN220 17/M14 A2950 RMK ACSL DSNT NW OMTNS
KMNH - Monument/Elbert, Colorado, USA
Distance from station: SSE 27mi, 43km
Updated: Sun, 02/18/2018 11:12am MST
Clear
Clear
 Wind from WSW
Wind: WSW 37 mph , 59 km/h, Gust: 48 mph , 78 km/h
Temperature: 54°F , 12°C
Dew Point: 1°F , -17°C
Humidity: 12%
Barometer: 29.58 inHg , 1001.7 hPa
Clouds: Clear
Visibility: 10 miles , 16 km
2018/02/18 18:12 KMNH 181812Z AUTO 24032G42KT 10SM CLR 12/M17 A2958 RMK AO2
 
KEIK - Erie Muni, Colorado, USA
Distance from station: NNW 33mi, 53km
Updated: Sun, 02/18/2018 11:18am MST
Clear
Clear
 Wind from W
Wind: W 31 mph , 50 km/h, Gust: 40 mph , 65 km/h
Temperature: 64°F , 18°C
Dew Point: 1°F , -17°C
Humidity: 8%
Barometer: 29.52 inHg , 999.7 hPa
Clouds: Clear
Visibility: 10 miles , 16 km
2018/02/18 18:18 KEIK 181818Z AUTO 27027G35KT 10SM CLR 18/M17 A2952 RMK AO2 T01831166
KBDU - Boulder Muni, Colorado, USA
Distance from station: NNW 38mi, 60km
Updated: Sun, 02/18/2018 10:54am MST
Clear
Clear
 Wind from SSW
Wind: SSW 21 mph , 33 km/h, Gust: 36 mph , 57 km/h
Temperature: 63°F , 17°C
Dew Point: 10°F , -12°C
Humidity: 13%
Barometer: 29.47 inHg , 998 hPa
Clouds: Clear
Visibility: 10 miles , 16 km
2018/02/18 17:54 KBDU 181754Z AUTO 21018G31KT 192V252 10SM CLR 17/M12 A2947 RMK AO2
 
KAFF - Usaf Academy/Cos, Colorado, USA
Distance from station: S 41mi, 66km
Updated: Sun, 02/18/2018 11:08am MST
Clear
Clear
 Wind from WSW
Wind: WSW 18 mph , 30 km/h, Gust: 38 mph , 61 km/h
Temperature: 59°F , 15°C
Dew Point: -6°F , -21°C
Humidity: 7%
Barometer: 29.57 inHg , 1001.4 hPa
Clouds: Clear
Visibility: 10 miles , 16 km
2018/02/18 18:08 KAFF 181808Z AUTO 25016G33KT 10SM CLR 15/M21 A2957 RMK AO2 WSHFT 1754 SLP977
KLMO - Longmont/Vbrand, Colorado, USA
Distance from station: NNW 45mi, 72km
Updated: Sun, 02/18/2018 10:55am MST
Clear
Clear
 Wind from WSW
Wind: WSW 23 mph , 37 km/h, Gust: 35 mph , 56 km/h
Temperature: 66°F , 19°C
Dew Point: 7°F , -14°C
Humidity: 9%
Barometer: 29.49 inHg , 998.6 hPa
Clouds: Clear
Visibility: 10 miles , 16 km
2018/02/18 17:55 KLMO 181755Z AUTO 25020G30KT 10SM CLR 19/M14 A2949 RMK AO2 T01901138
 
KFLY - Co Spngs Meadow, Colorado, USA
Distance from station: SSE 45mi, 73km
Updated: Sun, 02/18/2018 10:55am MST
Clear
Clear
 Wind from SE
Wind: SE 12 mph , 19 km/h, Gust: 18 mph , 30 km/h
Temperature: 55°F , 13°C
Dew Point: 1°F , -17°C
Humidity: 11%
Barometer: 29.62 inHg , 1003 hPa
Clouds: Clear
Visibility: 10 miles , 16 km
2018/02/18 17:55 KFLY 181755Z AUTO 13010G16KT 10SM CLR 13/M17 A2962 RMK AO2 T01331175 10133 21023
K4BM - Wilkerson Pass, Colorado, USA
Distance from station: SW 48mi, 77km
Updated: Sun, 02/18/2018 11:12am MST
Clear
Clear
 Wind from SW
Wind: SW 29 mph , 46 km/h, Gust: 44 mph , 70 km/h
Temperature: 34°F , 1°C
Wind Chill: 21°F , -6°C
Dew Point: -4°F , -20°C
Humidity: 19%
Barometer: 29.72 inHg , 1006.4 hPa
Clouds: Clear
Visibility: 10 miles , 16 km
2018/02/18 18:12 K4BM 181812Z AUTO 22025G38KT 10SM CLR 01/M20 A2972 RMK AO2 LTG DSNT N AND NW
 
K0CO - Berthoud Pass, Colorado, USA
Distance from station: WNW 49mi, 79km
Updated: Sun, 02/18/2018 11:12am MST
Clear
Clear
 Wind from WNW
Wind: WNW 59 mph , 94 km/h, Gust: 77 mph , 124 km/h
Temperature: 23°F , -5°C
Wind Chill: 0°F , -18°C
Dew Point: 12°F , -11°C
Humidity: 63%
Barometer: 29.64 inHg , 1003.7 hPa
Clouds: Clear
Visibility: 10 miles , 16 km
2018/02/18 18:12 K0CO 181812Z AUTO 29051G67KT 10SM CLR M05/M11 A2964 RMK AO2